Terminal Aerodrome Forecast
Issued by NWS

Home | Current Version | Previous Version | Text Only | Print | Product List | Glossary Off
Versions: 1 2 3 4 5 6 7 8 9 10 11 12 13 14 15 16 17

000
FTUS43 KIWX 180520
TAFSBN
TAF
KSBN 180520Z 1806/1906 19008KT P6SM OVC025 WS020/21050KT
     FM180900 18005KT 4SM -SHRA BR OVC015
     FM181400 04006KT 1SM -RA BR OVC003
     FM181700 34017G25KT 3SM -SHRA BR OVC008
     FM190000 32019G27KT P6SM OVC025=

USA.gov is the U.S. government's official web portal to all federal, state and local government web resources and services.